createdAt,value
2023-01-25T00:01:32.242Z,102085.59
2023-01-25T00:04:34.874Z,102087.31
2023-01-25T00:07:37.116Z,102089.06
2023-01-25T00:10:39.604Z,102093.44
2023-01-25T00:13:42.112Z,102104.78
2023-01-25T00:16:45.041Z,102106.53
2023-01-25T00:19:47.217Z,102102.19
2023-01-25T00:22:49.707Z,102106.53
2023-01-25T00:25:59.037Z,102110.03
2023-01-25T00:29:02.586Z,102105.66
2023-01-25T00:32:32.442Z,102102.16
2023-01-25T00:35:35.212Z,102103.00
2023-01-25T00:38:38.608Z,102106.44
2023-01-25T00:41:41.326Z,102109.81
2023-01-25T00:44:43.674Z,102108.09
2023-01-25T00:47:46.176Z,102111.69
2023-01-25T00:50:48.426Z,102103.06
2023-01-25T00:53:51.924Z,102100.47
2023-01-25T00:56:56.448Z,102103.09
2023-01-25T00:59:59.402Z,102103.97
2023-01-25T01:03:01.643Z,102111.81
2023-01-25T01:06:10.413Z,102117.03
2023-01-25T01:09:16.475Z,102112.69
2023-01-25T01:12:19.775Z,102116.16
2023-01-25T01:15:22.010Z,102116.16
2023-01-25T01:18:24.643Z,102122.25
2023-01-25T01:21:28.805Z,102124.84
2023-01-25T01:24:32.420Z,102128.34
2023-01-25T01:27:34.595Z,102122.25
2023-01-25T01:30:37.737Z,102122.25
2023-01-25T01:33:40.865Z,102121.41
2023-01-25T01:36:44.158Z,102123.12
2023-01-25T01:39:46.356Z,102122.28
2023-01-25T01:43:17.195Z,102124.00
2023-01-25T01:46:34.536Z,102127.47
2023-01-25T01:49:37.734Z,102123.16
2023-01-25T01:52:40.918Z,102118.81
2023-01-25T01:55:43.600Z,102112.72
2023-01-25T01:58:49.709Z,102117.06
2023-01-25T02:01:52.450Z,102116.19
2023-01-25T02:05:01.281Z,102110.12
2023-01-25T02:08:05.572Z,102112.72
2023-01-25T02:11:09.164Z,102105.78
2023-01-25T02:14:11.588Z,102106.66
2023-01-25T02:17:14.366Z,102098.88
2023-01-25T02:20:39.495Z,102101.47
2023-01-25T02:23:51.063Z,102098.00
2023-01-25T02:26:53.461Z,102099.75
2023-01-25T02:29:57.364Z,102100.63
2023-01-25T02:32:59.931Z,102104.09
2023-01-25T02:36:08.469Z,102098.88
2023-01-25T02:39:20.130Z,102097.16
2023-01-25T02:42:24.760Z,102092.81
2023-01-25T02:45:30.176Z,102083.25
2023-01-25T02:48:32.711Z,102080.66
2023-01-25T02:51:38.635Z,102076.31
2023-01-25T02:54:41.290Z,102071.13
2023-01-25T02:57:44.296Z,102068.50
2023-01-25T03:00:48.325Z,102065.91
2023-01-25T03:03:50.550Z,102060.69
2023-01-25T03:06:53.646Z,102069.38
2023-01-25T03:09:55.992Z,102066.78
2023-01-25T03:12:59.740Z,102069.38
2023-01-25T03:16:06.335Z,102064.19
2023-01-25T03:19:09.127Z,102064.19
2023-01-25T03:22:11.325Z,102057.22
2023-01-25T03:25:14.015Z,102062.44
2023-01-25T03:28:18.742Z,102052.03
2023-01-25T03:31:24.833Z,102040.75
2023-01-25T03:34:27.304Z,102052.88
2023-01-25T03:37:30.149Z,102053.69
2023-01-25T03:40:32.612Z,102057.88
2023-01-25T03:43:35.994Z,102057.78
2023-01-25T03:46:42.556Z,102066.28
2023-01-25T03:49:46.276Z,102062.69
2023-01-25T03:53:29.627Z,102056.53
2023-01-25T03:56:33.219Z,102058.13
2023-01-25T03:59:36.359Z,102052.97
2023-01-25T04:02:39.814Z,102046.13
2023-01-25T04:05:43.437Z,102053.09
2023-01-25T04:08:46.667Z,102051.41
2023-01-25T04:11:51.136Z,102047.91
2023-01-25T04:14:55.150Z,102054.91
2023-01-25T04:17:57.950Z,102058.50
2023-01-25T04:21:00.476Z,102059.41
2023-01-25T04:24:03.215Z,102068.06
2023-01-25T04:27:06.283Z,102060.97
2023-01-25T04:30:09.536Z,102070.31
2023-01-25T04:33:12.128Z,102064.97
2023-01-25T04:36:15.184Z,102069.25
2023-01-25T04:39:18.983Z,102069.31
2023-01-25T04:42:22.268Z,102068.28
2023-01-25T04:45:25.769Z,102063.94
2023-01-25T04:48:29.905Z,102068.06
2023-01-25T04:51:32.293Z,102070.66
2023-01-25T04:54:34.791Z,102070.75
2023-01-25T04:57:37.404Z,102066.38
2023-01-25T05:00:39.884Z,102061.03
2023-01-25T05:03:42.277Z,102069.72
2023-01-25T05:06:46.775Z,102070.66
2023-01-25T05:09:49.210Z,102068.09
2023-01-25T05:12:54.497Z,102069.84
2023-01-25T05:15:57.703Z,102068.06
2023-01-25T05:19:00.571Z,102077.69
2023-01-25T05:22:07.625Z,102077.69
2023-01-25T05:25:31.944Z,102071.56
2023-01-25T05:28:35.460Z,102075.91
2023-01-25T05:31:39.500Z,102069.00
2023-01-25T05:34:42.414Z,102071.44
2023-01-25T05:37:44.915Z,102067.97
2023-01-25T05:40:49.271Z,102076.72
2023-01-25T05:43:52.277Z,102067.91
2023-01-25T05:46:54.698Z,102074.91
2023-01-25T05:49:57.279Z,102066.16
2023-01-25T05:52:59.908Z,102062.69
2023-01-25T05:56:05.368Z,102066.03
2023-01-25T05:59:07.880Z,102061.72
2023-01-25T06:02:11.360Z,102073.09
2023-01-25T06:05:14.825Z,102068.72
2023-01-25T06:08:17.725Z,102072.28
2023-01-25T06:11:23.043Z,102074.03
2023-01-25T06:14:27.504Z,102079.38
2023-01-25T06:17:31.398Z,102076.75
2023-01-25T06:20:35.323Z,102080.94
2023-01-25T06:23:41.781Z,102081.75
2023-01-25T06:26:46.157Z,102095.66
2023-01-25T06:29:50.878Z,102094.81
2023-01-25T06:32:53.768Z,102098.37
2023-01-25T06:36:00.652Z,102103.56
2023-01-25T06:39:04.546Z,102106.12
2023-01-25T06:42:07.434Z,102101.81
2023-01-25T06:45:10.701Z,102100.06
2023-01-25T06:48:13.826Z,102099.28
2023-01-25T06:51:16.727Z,102107.03
2023-01-25T06:54:19.337Z,102105.31
2023-01-25T06:57:21.553Z,102101.75
2023-01-25T07:00:24.073Z,102106.94
2023-01-25T07:03:26.220Z,102092.13
2023-01-25T07:06:34.784Z,102097.41
2023-01-25T07:09:37.164Z,102097.13
2023-01-25T07:12:39.691Z,102097.09
2023-01-25T07:15:41.887Z,102104.09
2023-01-25T07:18:44.605Z,102094.44
2023-01-25T07:21:47.193Z,102096.94
2023-01-25T07:24:52.169Z,102088.25
2023-01-25T07:27:55.382Z,102094.13
2023-01-25T07:31:06.222Z,102093.22
2023-01-25T07:34:13.638Z,102097.22
2023-01-25T07:37:16.261Z,102097.03
2023-01-25T07:40:18.447Z,102093.63
2023-01-25T07:43:20.963Z,102102.34
2023-01-25T07:46:23.914Z,102092.59
2023-01-25T07:49:26.477Z,102089.84
2023-01-25T07:52:28.950Z,102094.25
2023-01-25T07:55:31.532Z,102091.56
2023-01-25T07:58:34.104Z,102097.63
2023-01-25T08:01:37.359Z,102096.78
2023-01-25T08:04:40.090Z,102096.66
2023-01-25T08:07:42.273Z,102100.06
2023-01-25T08:10:44.788Z,102096.53
2023-01-25T08:13:49.051Z,102099.06
2023-01-25T08:16:51.627Z,102095.56
2023-01-25T08:19:53.790Z,102089.47
2023-01-25T08:22:56.277Z,102094.63
2023-01-25T08:26:03.228Z,102097.13
2023-01-25T08:29:07.297Z,102093.56
2023-01-25T08:32:09.516Z,102087.94
2023-01-25T08:35:12.444Z,102081.97
2023-01-25T08:38:14.715Z,102086.97
2023-01-25T08:41:22.095Z,102079.84
2023-01-25T08:44:26.011Z,102082.47
2023-01-25T08:47:28.660Z,102082.34
2023-01-25T08:50:31.157Z,102081.53
2023-01-25T08:53:33.827Z,102075.22
2023-01-25T08:56:42.588Z,102077.81
2023-01-25T08:59:45.259Z,102078.72
2023-01-25T09:02:47.487Z,102078.34
2023-01-25T09:05:49.990Z,102082.00
2023-01-25T09:08:52.232Z,102075.00
2023-01-25T09:11:55.063Z,102070.63
2023-01-25T09:14:57.415Z,102078.88
2023-01-25T09:18:00.022Z,102068.28
2023-01-25T09:21:09.755Z,102075.31
2023-01-25T09:24:12.433Z,102062.16
2023-01-25T09:27:14.684Z,102065.66
2023-01-25T09:30:19.055Z,102061.06
2023-01-25T09:33:28.774Z,102061.09
2023-01-25T09:36:31.256Z,102066.34
2023-01-25T09:39:33.515Z,102064.94
2023-01-25T09:42:47.056Z,102067.75
2023-01-25T09:45:49.475Z,102065.13
2023-01-25T09:49:16.636Z,102065.81
2023-01-25T09:52:38.922Z,102059.09
2023-01-25T09:56:12.981Z,102049.63
2023-01-25T09:59:18.555Z,102041.59
2023-01-25T10:02:30.647Z,102036.59
2023-01-25T10:05:51.000Z,102029.78
2023-01-25T10:09:01.077Z,102036.41
2023-01-25T10:12:20.468Z,102023.25
2023-01-25T10:15:29.010Z,102014.69
2023-01-25T10:19:01.888Z,102008.59
2023-01-25T10:22:24.747Z,102005.41
2023-01-25T10:25:45.674Z,102007.34
2023-01-25T10:29:04.237Z,101995.28
2023-01-25T10:32:26.965Z,101996.34
2023-01-25T10:35:38.883Z,101989.53
2023-01-25T10:38:46.512Z,101989.37
2023-01-25T10:42:05.099Z,101984.81
2023-01-25T10:45:17.292Z,101975.25
2023-01-25T10:48:23.312Z,101975.84
2023-01-25T10:51:29.545Z,101968.34
2023-01-25T10:54:31.906Z,101967.50
2023-01-25T10:57:35.913Z,101964.81
2023-01-25T11:00:40.976Z,101966.69
2023-01-25T11:03:47.015Z,101956.22
2023-01-25T11:06:51.455Z,101961.47
2023-01-25T11:09:54.354Z,101954.81
2023-01-25T11:13:15.057Z,101947.81
2023-01-25T11:16:26.617Z,101938.25
2023-01-25T11:19:30.638Z,101941.06
2023-01-25T11:22:33.118Z,101939.91
2023-01-25T11:25:35.778Z,101936.41
2023-01-25T11:28:38.056Z,101923.44
2023-01-25T11:31:45.731Z,101916.59
2023-01-25T11:34:49.971Z,101914.50
2023-01-25T11:38:11.378Z,101910.81
2023-01-25T11:41:35.089Z,101907.72
2023-01-25T11:44:49.865Z,101894.41
2023-01-25T11:48:43.659Z,101894.13
2023-01-25T11:51:46.135Z,101883.66
2023-01-25T11:54:56.969Z,101871.44
2023-01-25T11:58:02.638Z,101853.53
2023-01-25T12:01:27.539Z,101855.72
2023-01-25T12:04:42.472Z,101840.13
2023-01-25T12:08:12.983Z,101841.56
2023-01-25T12:12:09.476Z,101837.63
2023-01-25T12:15:36.364Z,101826.72
2023-01-25T12:19:00.617Z,101827.22
2023-01-25T12:22:02.913Z,101821.06
2023-01-25T12:25:20.782Z,101818.91
2023-01-25T12:28:29.028Z,101812.44
2023-01-25T12:31:42.372Z,101811.72
2023-01-25T12:34:50.508Z,101817.28
2023-01-25T12:37:58.523Z,101816.09
2023-01-25T12:41:28.581Z,101808.00
2023-01-25T12:44:51.659Z,101807.81
2023-01-25T12:48:01.751Z,101802.44
2023-01-25T12:51:04.418Z,101801.09
2023-01-25T12:54:16.940Z,101796.75
2023-01-25T12:57:57.267Z,101796.94
2023-01-25T13:01:08.532Z,101791.81
2023-01-25T13:04:44.863Z,101778.75
2023-01-25T13:08:00.903Z,101781.12
2023-01-25T13:11:10.855Z,101781.22
2023-01-25T13:14:16.778Z,101779.00
2023-01-25T13:17:22.502Z,101773.03
2023-01-25T13:20:40.278Z,101769.41
2023-01-25T13:23:47.488Z,101770.22
2023-01-25T13:26:59.285Z,101763.81
2023-01-25T13:30:23.340Z,101760.16
2023-01-25T13:33:36.008Z,101755.63
2023-01-25T13:36:42.899Z,101760.31
2023-01-25T13:39:48.120Z,101758.94
2023-01-25T13:43:23.174Z,101756.13
2023-01-25T13:46:26.018Z,101753.97
2023-01-25T13:49:36.142Z,101753.47
2023-01-25T13:52:38.387Z,101760.59
2023-01-25T13:55:43.662Z,101750.91
2023-01-25T13:58:48.026Z,101750.97
2023-01-25T14:01:51.435Z,101745.84
2023-01-25T14:04:54.143Z,101739.22
2023-01-25T14:07:57.500Z,101741.16
2023-01-25T14:11:00.394Z,101743.16
2023-01-25T14:14:16.845Z,101733.69
2023-01-25T14:17:22.066Z,101732.66
2023-01-25T14:20:24.583Z,101737.81
2023-01-25T14:23:29.305Z,101737.63
2023-01-25T14:26:33.179Z,101738.34
2023-01-25T14:29:35.756Z,101737.56
2023-01-25T14:32:37.961Z,101733.84
2023-01-25T14:35:53.678Z,101736.56
2023-01-25T14:38:56.822Z,101733.97
2023-01-25T14:42:01.748Z,101728.03
2023-01-25T14:45:04.559Z,101732.88
2023-01-25T14:48:33.505Z,101732.56
2023-01-25T14:51:48.299Z,101723.41
2023-01-25T14:54:53.330Z,101722.66
2023-01-25T14:58:00.739Z,101723.47
2023-01-25T15:01:03.770Z,101722.81
2023-01-25T15:04:11.854Z,101725.75
2023-01-25T15:07:46.007Z,101716.66
2023-01-25T15:10:53.997Z,101713.47
2023-01-25T15:14:05.846Z,101715.88
2023-01-25T15:17:41.325Z,101714.16
2023-01-25T15:20:44.020Z,101717.94
2023-01-25T15:23:47.955Z,101715.28
2023-01-25T15:26:53.069Z,101717.25
2023-01-25T15:29:55.191Z,101714.75
2023-01-25T15:32:58.245Z,101717.53
2023-01-25T15:36:00.375Z,101710.81
2023-01-25T15:39:03.167Z,101712.56
2023-01-25T15:42:06.117Z,101709.13
2023-01-25T15:45:12.130Z,101717.09
2023-01-25T15:48:35.772Z,101713.56
2023-01-25T15:51:38.256Z,101716.28
2023-01-25T15:54:44.036Z,101719.06
2023-01-25T15:57:51.318Z,101712.84
2023-01-25T16:00:53.719Z,101719.34
2023-01-25T16:03:59.208Z,101713.00
2023-01-25T16:07:02.055Z,101709.28
2023-01-25T16:10:04.818Z,101702.50
2023-01-25T16:13:08.987Z,101693.81
2023-01-25T16:16:20.860Z,101693.78
2023-01-25T16:19:24.226Z,101698.34
2023-01-25T16:22:26.638Z,101696.53
2023-01-25T16:25:28.854Z,101693.12
2023-01-25T16:28:31.384Z,101696.62
2023-01-25T16:31:33.825Z,101693.03
2023-01-25T16:34:36.720Z,101693.69
2023-01-25T16:37:39.009Z,101691.09
2023-01-25T16:40:41.598Z,101697.59
2023-01-25T16:43:45.748Z,101694.06
2023-01-25T16:46:50.072Z,101689.56
2023-01-25T16:49:52.323Z,101691.63
2023-01-25T16:52:56.129Z,101698.47
2023-01-25T16:56:01.020Z,101696.12
2023-01-25T16:59:05.317Z,101690.09
2023-01-25T17:02:11.715Z,101688.09
2023-01-25T17:05:14.444Z,101689.12
2023-01-25T17:08:17.028Z,101691.88
2023-01-25T17:11:20.007Z,101686.59
2023-01-25T17:14:22.820Z,101684.03
2023-01-25T17:17:27.808Z,101684.03
2023-01-25T17:20:30.194Z,101686.03
2023-01-25T17:23:34.973Z,101670.91
2023-01-25T17:26:37.499Z,101670.97
2023-01-25T17:29:40.216Z,101669.09
2023-01-25T17:32:42.485Z,101670.03
2023-01-25T17:35:45.149Z,101674.59
2023-01-25T17:38:48.138Z,101669.78
2023-01-25T17:41:51.402Z,101658.66
2023-01-25T17:44:53.564Z,101658.09
2023-01-25T17:47:56.180Z,101651.78
2023-01-25T17:51:02.960Z,101646.69
2023-01-25T17:54:06.008Z,101646.81
2023-01-25T17:57:08.256Z,101641.53
2023-01-25T18:00:12.054Z,101639.87
2023-01-25T18:03:14.631Z,101635.28
2023-01-25T18:06:20.454Z,101637.84
2023-01-25T18:09:23.765Z,101627.59
2023-01-25T18:12:27.295Z,101625.00
2023-01-25T18:15:29.620Z,101623.37
2023-01-25T18:18:32.627Z,101626.72
2023-01-25T18:21:35.909Z,101630.97
2023-01-25T18:24:38.360Z,101630.28
2023-01-25T18:27:40.723Z,101638.03
2023-01-25T18:30:49.574Z,101632.47
2023-01-25T18:33:52.154Z,101629.19
2023-01-25T18:36:58.371Z,101621.75
2023-01-25T18:40:00.724Z,101620.50
2023-01-25T18:43:03.437Z,101612.38
2023-01-25T18:46:05.960Z,101604.78
2023-01-25T18:49:09.245Z,101594.44
2023-01-25T18:52:12.160Z,101587.84
2023-01-25T18:55:15.186Z,101587.75
2023-01-25T18:58:17.416Z,101591.09
2023-01-25T19:01:22.366Z,101579.13
2023-01-25T19:04:24.600Z,101581.81
2023-01-25T19:07:27.279Z,101576.06
2023-01-25T19:10:29.572Z,101582.25
2023-01-25T19:13:37.107Z,101576.34
2023-01-25T19:16:39.318Z,101569.34
2023-01-25T19:19:44.029Z,101555.66
2023-01-25T19:22:47.835Z,101559.00
2023-01-25T19:25:56.529Z,101555.66
2023-01-25T19:28:58.684Z,101553.94
2023-01-25T19:32:01.170Z,101543.47
2023-01-25T19:35:06.219Z,101541.81
2023-01-25T19:38:08.671Z,101545.09
2023-01-25T19:41:13.569Z,101539.97
2023-01-25T19:44:16.160Z,101546.38
2023-01-25T19:47:18.475Z,101543.69
2023-01-25T19:50:21.087Z,101545.94
2023-01-25T19:53:23.379Z,101537.25
2023-01-25T19:56:28.150Z,101545.72
2023-01-25T19:59:30.557Z,101542.16
2023-01-25T20:02:33.640Z,101535.34
2023-01-25T20:05:36.481Z,101537.22
2023-01-25T20:08:40.912Z,101531.34
2023-01-25T20:11:43.608Z,101530.50
2023-01-25T20:14:45.848Z,101531.53
2023-01-25T20:17:48.337Z,101520.19
2023-01-25T20:20:55.860Z,101520.97
2023-01-25T20:24:02.522Z,101519.13
2023-01-25T20:27:04.876Z,101513.94
2023-01-25T20:30:08.206Z,101510.78
2023-01-25T20:33:10.469Z,101510.31
2023-01-25T20:36:13.469Z,101514.63
2023-01-25T20:39:20.546Z,101501.75
2023-01-25T20:42:23.053Z,101504.19
2023-01-25T20:45:25.297Z,101497.87
2023-01-25T20:48:29.516Z,101495.56
2023-01-25T20:51:32.203Z,101487.63
2023-01-25T20:54:34.715Z,101494.34
2023-01-25T20:57:37.616Z,101488.22
2023-01-25T21:00:40.235Z,101487.47
2023-01-25T21:03:42.887Z,101483.16
2023-01-25T21:06:46.128Z,101474.34
2023-01-25T21:09:48.503Z,101468.31
2023-01-25T21:12:51.159Z,101463.91
2023-01-25T21:16:23.922Z,101462.00
2023-01-25T21:19:26.719Z,101455.94
2023-01-25T21:22:29.984Z,101463.00
2023-01-25T21:25:32.588Z,101464.59
2023-01-25T21:28:35.299Z,101452.62
2023-01-25T21:31:39.793Z,101458.03
2023-01-25T21:34:42.023Z,101447.56
2023-01-25T21:37:46.147Z,101452.47
2023-01-25T21:40:48.290Z,101447.37
2023-01-25T21:44:11.395Z,101448.16
2023-01-25T21:47:29.467Z,101440.59
2023-01-25T21:50:51.279Z,101437.28
2023-01-25T21:53:53.908Z,101433.78
2023-01-25T21:56:57.716Z,101432.91
2023-01-25T22:00:00.538Z,101433.59
2023-01-25T22:03:03.268Z,101428.28
2023-01-25T22:06:06.151Z,101424.00
2023-01-25T22:09:09.126Z,101429.84
2023-01-25T22:12:12.388Z,101424.56
2023-01-25T22:15:14.642Z,101416.13
2023-01-25T22:18:17.225Z,101418.47
2023-01-25T22:21:22.197Z,101417.59
2023-01-25T22:24:24.822Z,101411.72
2023-01-25T22:27:33.267Z,101405.03
2023-01-25T22:30:35.789Z,101397.97
2023-01-25T22:33:38.090Z,101408.28
2023-01-25T22:36:40.639Z,101407.47
2023-01-25T22:39:42.952Z,101401.44
2023-01-25T22:42:45.649Z,101396.44
2023-01-25T22:45:52.198Z,101396.75
2023-01-25T22:48:55.203Z,101389.94
2023-01-25T22:51:57.448Z,101391.88
2023-01-25T22:54:59.984Z,101392.91
2023-01-25T22:58:02.293Z,101379.91
2023-01-25T23:01:09.665Z,101389.03
2023-01-25T23:04:12.323Z,101377.50
2023-01-25T23:07:18.714Z,101374.03
2023-01-25T23:10:21.113Z,101367.28
2023-01-25T23:13:23.706Z,101380.59
2023-01-25T23:16:25.975Z,101372.63
2023-01-25T23:19:28.802Z,101366.66
2023-01-25T23:22:30.963Z,101360.44
2023-01-25T23:25:33.542Z,101362.00
2023-01-25T23:28:35.861Z,101360.25
2023-01-25T23:31:38.634Z,101354.84
2023-01-25T23:34:41.497Z,101357.50
2023-01-25T23:37:45.946Z,101343.72
2023-01-25T23:40:48.785Z,101337.12
2023-01-25T23:43:51.285Z,101337.34
2023-01-25T23:46:53.432Z,101331.25
2023-01-25T23:49:56.234Z,101324.94
2023-01-25T23:52:58.473Z,101321.31
2023-01-25T23:56:05.863Z,101322.94
2023-01-25T23:59:08.135Z,101318.53
